createdAt,value
2024-05-09T00:03:20.586Z,13.93
2024-05-09T00:07:23.026Z,13.54
2024-05-09T00:11:25.408Z,13.47
2024-05-09T00:15:27.743Z,13.44
2024-05-09T00:19:30.182Z,13.39
2024-05-09T00:23:32.795Z,13.40
2024-05-09T00:27:36.527Z,13.55
2024-05-09T00:31:38.849Z,13.60
2024-05-09T00:35:41.790Z,13.37
2024-05-09T00:39:44.684Z,13.39
2024-05-09T00:43:47.352Z,13.34
2024-05-09T00:47:50.187Z,13.32
2024-05-09T00:51:56.954Z,13.31
2024-05-09T00:56:00.176Z,13.22
2024-05-09T01:00:03.635Z,13.14
2024-05-09T01:04:07.308Z,13.18
2024-05-09T01:08:10.806Z,13.26
2024-05-09T01:12:16.483Z,13.23
2024-05-09T01:16:23.146Z,13.11
2024-05-09T01:20:40.156Z,12.97
2024-05-09T01:24:51.023Z,12.95
2024-05-09T01:28:58.678Z,13.11
2024-05-09T01:33:09.992Z,13.15
2024-05-09T01:37:19.622Z,13.04
2024-05-09T01:41:28.393Z,12.86
2024-05-09T01:45:35.423Z,12.76
2024-05-09T01:49:44.231Z,12.93
2024-05-09T01:53:50.967Z,12.89
2024-05-09T01:57:58.883Z,12.96
2024-05-09T02:02:15.900Z,12.97
2024-05-09T02:06:23.261Z,13.01
2024-05-09T02:10:32.350Z,13.01
2024-05-09T02:14:39.813Z,12.96
2024-05-09T02:18:46.980Z,12.93
2024-05-09T02:22:55.366Z,12.96
2024-05-09T02:27:02.872Z,13.09
2024-05-09T02:31:15.962Z,13.40
2024-05-09T02:35:22.828Z,13.45
2024-05-09T02:39:31.199Z,13.38
2024-05-09T02:43:39.462Z,13.55
2024-05-09T02:47:48.224Z,13.88
2024-05-09T02:51:56.657Z,14.35
2024-05-09T02:56:03.741Z,14.66
2024-05-09T03:00:18.525Z,14.48
2024-05-09T03:04:29.716Z,14.62
2024-05-09T03:08:38.380Z,14.79
2024-05-09T03:12:46.536Z,15.01
2024-05-09T03:16:53.434Z,15.04
2024-05-09T03:21:01.858Z,15.10
2024-05-09T03:25:09.200Z,15.14
2024-05-09T03:29:17.507Z,15.02
2024-05-09T03:33:24.738Z,14.95
2024-05-09T03:37:32.940Z,14.75
2024-05-09T03:41:39.387Z,14.27
2024-05-09T03:45:48.230Z,14.12
2024-05-09T03:49:55.579Z,14.03
2024-05-09T03:54:01.065Z,14.01
2024-05-09T03:58:03.636Z,13.85
2024-05-09T04:02:06.751Z,13.80
2024-05-09T04:06:09.185Z,13.73
2024-05-09T04:10:20.932Z,13.64
2024-05-09T04:14:30.252Z,13.68
2024-05-09T04:18:32.785Z,13.74
2024-05-09T04:22:35.224Z,13.91
2024-05-09T04:26:37.831Z,13.96
2024-05-09T04:30:41.635Z,13.95
2024-05-09T04:34:44.942Z,14.07
2024-05-09T04:38:47.373Z,14.43
2024-05-09T04:42:49.834Z,14.35
2024-05-09T04:46:52.518Z,14.43
2024-05-09T04:50:55.025Z,14.55
2024-05-09T04:54:58.978Z,14.71
2024-05-09T04:59:01.534Z,14.83
2024-05-09T05:03:24.023Z,15.07
2024-05-09T05:07:26.588Z,15.29
2024-05-09T05:11:29.123Z,15.46
2024-05-09T05:15:31.656Z,15.70
2024-05-09T05:19:34.277Z,15.89
2024-05-09T05:23:37.069Z,16.07
2024-05-09T05:27:40.752Z,16.16
2024-05-09T05:31:43.173Z,16.23
2024-05-09T05:35:45.604Z,16.24
2024-05-09T05:39:48.127Z,16.33
2024-05-09T05:43:50.706Z,16.47
2024-05-09T05:47:54.974Z,16.51
2024-05-09T05:51:57.351Z,16.60
2024-05-09T05:56:00.013Z,16.66
2024-05-09T06:00:04.135Z,16.66
2024-05-09T06:04:14.881Z,16.84
2024-05-09T06:08:17.314Z,16.94
2024-05-09T06:12:19.865Z,16.90
2024-05-09T06:16:22.334Z,16.96
2024-05-09T06:20:34.019Z,17.05
2024-05-09T06:24:38.952Z,17.03
2024-05-09T06:28:41.322Z,17.16
2024-05-09T06:32:44.293Z,17.14
2024-05-09T06:36:46.773Z,17.20
2024-05-09T06:40:49.308Z,17.29
2024-05-09T06:44:52.115Z,17.31
2024-05-09T06:48:54.970Z,17.35
2024-05-09T06:52:57.456Z,17.35
2024-05-09T06:56:59.760Z,17.45
2024-05-09T07:01:02.184Z,17.50
2024-05-09T07:05:05.100Z,17.54
2024-05-09T07:09:07.537Z,17.49
2024-05-09T07:13:11.495Z,17.46
2024-05-09T07:17:14.645Z,17.62
2024-05-09T07:21:17.255Z,17.91
2024-05-09T07:25:19.693Z,17.96
2024-05-09T07:29:22.037Z,17.98
2024-05-09T07:33:24.973Z,18.20
2024-05-09T07:37:27.619Z,18.17
2024-05-09T07:41:30.136Z,18.14
2024-05-09T07:53:47.880Z,18.57
2024-05-09T07:57:54.643Z,18.57
2024-05-09T08:01:57.084Z,18.79
2024-05-09T08:05:59.496Z,19.02
2024-05-09T08:10:01.927Z,19.26
2024-05-09T08:14:04.748Z,19.24
2024-05-09T08:18:10.996Z,19.26
2024-05-09T08:22:14.642Z,19.56
2024-05-09T08:26:18.483Z,19.72
2024-05-09T08:30:25.449Z,19.67
2024-05-09T08:34:35.015Z,19.77
2024-05-09T08:38:37.418Z,20.21
2024-05-09T08:42:48.388Z,20.45
2024-05-09T08:46:54.090Z,20.75
2024-05-09T08:50:59.585Z,20.58
2024-05-09T08:55:02.340Z,20.49
2024-05-09T08:59:09.211Z,20.37
2024-05-09T09:03:27.408Z,20.35
2024-05-09T09:07:33.551Z,20.17
2024-05-09T09:11:35.975Z,20.25
2024-05-09T09:15:51.298Z,20.39
2024-05-09T09:19:53.758Z,20.40
2024-05-09T09:23:56.512Z,20.30
2024-05-09T09:27:59.357Z,20.52
2024-05-09T09:32:05.694Z,20.47
2024-05-09T09:36:11.175Z,20.39
2024-05-09T09:40:22.290Z,20.15
2024-05-09T09:44:28.269Z,20.53
2024-05-09T09:48:33.865Z,20.36
2024-05-09T09:52:37.032Z,20.50
2024-05-09T09:56:39.714Z,20.78
2024-05-09T10:00:42.440Z,20.41
2024-05-09T10:04:45.083Z,20.41
2024-05-09T10:08:49.051Z,20.32
2024-05-09T10:13:04.154Z,20.42
2024-05-09T10:17:06.657Z,20.55
2024-05-09T10:21:19.501Z,20.66
2024-05-09T10:25:23.758Z,20.54
2024-05-09T10:29:26.568Z,20.50
2024-05-09T10:33:39.782Z,20.67
2024-05-09T10:37:42.278Z,20.77
2024-05-09T10:41:45.132Z,20.68
2024-05-09T10:45:47.929Z,20.59
2024-05-09T10:49:50.786Z,20.55
2024-05-09T10:53:53.358Z,20.64
2024-05-09T10:57:55.935Z,20.95
2024-05-09T11:02:00.524Z,21.10
2024-05-09T11:06:03.586Z,21.21
2024-05-09T11:10:09.803Z,21.18
2024-05-09T11:14:15.034Z,21.27
2024-05-09T11:18:26.211Z,21.09
2024-05-09T11:22:33.469Z,21.10
2024-05-09T11:26:35.902Z,21.14
2024-05-09T11:30:38.381Z,21.22
2024-05-09T11:34:42.366Z,20.89
2024-05-09T11:38:44.716Z,20.79
2024-05-09T11:42:48.767Z,20.93
2024-05-09T11:46:54.154Z,21.40
2024-05-09T11:50:56.747Z,21.66
2024-05-09T11:55:00.014Z,21.55
2024-05-09T11:59:02.903Z,21.49
2024-05-09T12:03:06.188Z,21.77
2024-05-09T12:07:12.224Z,21.75
2024-05-09T12:11:16.756Z,21.68
2024-05-09T12:15:20.431Z,21.74
2024-05-09T12:19:22.973Z,21.73
2024-05-09T12:23:25.713Z,21.60
2024-05-09T12:27:28.376Z,21.69
2024-05-09T12:31:32.051Z,21.73
2024-05-09T12:35:35.117Z,21.72
2024-05-09T12:39:37.814Z,21.56
2024-05-09T12:43:41.111Z,21.81
2024-05-09T12:47:43.627Z,21.85
2024-05-09T12:51:46.119Z,21.91
2024-05-09T12:55:56.512Z,21.98
2024-05-09T13:00:04.046Z,22.32
2024-05-09T13:04:06.868Z,22.18
2024-05-09T13:08:09.429Z,22.12
2024-05-09T13:12:12.020Z,22.21
2024-05-09T13:16:14.534Z,22.52
2024-05-09T13:20:25.744Z,22.43
2024-05-09T13:24:32.002Z,22.70
2024-05-09T13:28:34.799Z,22.77
2024-05-09T13:32:37.335Z,23.14
2024-05-09T13:36:39.905Z,23.38
2024-05-09T13:40:42.746Z,23.27
2024-05-09T13:44:45.359Z,23.35
2024-05-09T13:48:48.026Z,23.55
2024-05-09T13:52:50.536Z,23.63
2024-05-09T13:56:53.218Z,23.85
2024-05-09T14:00:56.025Z,24.09
2024-05-09T14:04:59.661Z,24.13
2024-05-09T14:09:04.986Z,24.09
2024-05-09T14:13:07.562Z,24.07
2024-05-09T14:17:10.641Z,24.00
2024-05-09T14:21:13.236Z,23.78
2024-05-09T14:25:16.151Z,23.89
2024-05-09T14:29:18.773Z,23.92
2024-05-09T14:33:26.768Z,24.02
2024-05-09T14:37:30.566Z,23.15
2024-05-09T14:41:33.024Z,22.82
2024-05-09T14:45:37.028Z,22.69
2024-05-09T14:49:40.055Z,22.88
2024-05-09T14:53:42.517Z,22.82
2024-05-09T14:57:45.068Z,23.08
2024-05-09T15:01:47.951Z,23.22
2024-05-09T15:05:51.170Z,22.84
2024-05-09T15:09:54.118Z,23.06
2024-05-09T15:13:56.643Z,23.00
2024-05-09T15:17:59.836Z,23.17
2024-05-09T15:22:04.229Z,22.96
2024-05-09T15:26:06.970Z,23.01
2024-05-09T15:30:11.068Z,23.25
2024-05-09T15:34:13.632Z,23.88
2024-05-09T15:38:18.544Z,24.69
2024-05-09T15:42:24.101Z,25.95
2024-05-09T15:46:26.627Z,25.88
2024-05-09T15:50:36.777Z,26.82
2024-05-09T15:54:42.558Z,27.25
2024-05-09T15:58:46.166Z,26.70
2024-05-09T16:02:48.771Z,27.59
2024-05-09T16:06:51.441Z,28.33
2024-05-09T16:10:54.194Z,28.19
2024-05-09T16:14:56.769Z,28.37
2024-05-09T16:19:00.549Z,27.03
2024-05-09T16:23:04.277Z,26.51
2024-05-09T16:27:06.997Z,26.24
2024-05-09T16:31:09.588Z,25.50
2024-05-09T16:35:12.165Z,25.90
2024-05-09T16:39:14.650Z,25.47
2024-05-09T16:43:17.382Z,24.25
2024-05-09T16:47:21.182Z,24.33
2024-05-09T16:51:23.740Z,23.78
2024-05-09T16:55:26.399Z,23.68
2024-05-09T16:59:29.522Z,23.08
2024-05-09T17:03:32.136Z,22.69
2024-05-09T17:07:34.638Z,21.99
2024-05-09T17:11:37.100Z,21.94
2024-05-09T17:15:39.699Z,21.76
2024-05-09T17:19:42.727Z,21.51
2024-05-09T17:23:45.217Z,20.96
2024-05-09T17:27:49.091Z,20.53
2024-05-09T17:31:51.561Z,20.32
2024-05-09T17:35:54.014Z,20.30
2024-05-09T17:39:57.674Z,20.08
2024-05-09T17:44:00.136Z,19.71
2024-05-09T17:48:03.076Z,19.61
2024-05-09T17:52:06.611Z,19.53
2024-05-09T17:56:09.548Z,19.21
2024-05-09T18:00:17.426Z,18.94
2024-05-09T18:04:24.151Z,18.77
2024-05-09T18:08:26.824Z,18.54
2024-05-09T18:12:29.408Z,18.48
2024-05-09T18:16:32.222Z,18.29
2024-05-09T18:20:43.174Z,18.10
2024-05-09T18:24:48.177Z,17.99
2024-05-09T18:28:50.868Z,17.95
2024-05-09T18:32:53.410Z,17.85
2024-05-09T18:36:56.248Z,17.74
2024-05-09T18:40:58.806Z,17.60
2024-05-09T18:45:01.666Z,17.57
2024-05-09T18:49:04.632Z,17.50
2024-05-09T18:53:08.429Z,17.37
2024-05-09T18:57:26.213Z,17.37
2024-05-09T19:01:29.228Z,17.28
2024-05-09T19:05:32.179Z,17.18
2024-05-09T19:09:35.662Z,17.08
2024-05-09T19:13:38.866Z,17.02
2024-05-09T19:17:41.593Z,16.95
2024-05-09T19:21:44.072Z,16.91
2024-05-09T19:25:46.596Z,16.77
2024-05-09T19:29:49.117Z,16.81
2024-05-09T19:33:52.167Z,16.81
2024-05-09T19:37:54.871Z,16.80
2024-05-09T19:41:57.643Z,16.80
2024-05-09T19:46:01.535Z,16.83
2024-05-09T19:50:10.521Z,16.76
2024-05-09T19:54:13.579Z,16.88
2024-05-09T19:58:16.245Z,16.84
2024-05-09T20:02:20.422Z,16.77
2024-05-09T20:06:25.313Z,16.83
2024-05-09T20:10:32.495Z,16.84
2024-05-09T20:14:37.156Z,16.71
2024-05-09T20:18:40.268Z,16.64
2024-05-09T20:22:42.819Z,16.63
2024-05-09T20:26:45.501Z,16.46
2024-05-09T20:30:48.180Z,16.42
2024-05-09T20:34:51.944Z,16.40
2024-05-09T20:38:54.379Z,16.29
2024-05-09T20:42:57.216Z,16.02
2024-05-09T20:47:00.392Z,15.73
2024-05-09T20:51:03.185Z,15.62
2024-05-09T20:55:06.247Z,15.45
2024-05-09T20:59:09.054Z,15.43
2024-05-09T21:03:13.307Z,15.36
2024-05-09T21:07:17.603Z,15.31
2024-05-09T21:11:23.015Z,15.12
2024-05-09T21:15:25.507Z,14.94
2024-05-09T21:19:27.949Z,14.90
2024-05-09T21:23:30.385Z,14.76
2024-05-09T21:27:34.428Z,14.79
2024-05-09T21:31:38.153Z,14.75
2024-05-09T21:35:41.439Z,14.74
2024-05-09T21:39:43.945Z,14.75
2024-05-09T21:43:46.395Z,14.71
2024-05-09T21:47:48.948Z,14.52
2024-05-09T21:51:51.517Z,14.52
2024-05-09T21:56:00.732Z,14.45
2024-05-09T22:00:25.157Z,14.34
2024-05-09T22:04:35.793Z,14.30
2024-05-09T22:08:38.351Z,14.10
2024-05-09T22:12:41.616Z,14.02
2024-05-09T22:16:47.893Z,13.88
2024-05-09T22:20:52.004Z,13.85
2024-05-09T22:24:55.616Z,13.73
2024-05-09T22:28:58.125Z,13.78
2024-05-09T22:33:00.815Z,13.77
2024-05-09T22:37:03.889Z,13.77
2024-05-09T22:41:07.863Z,13.68
2024-05-09T22:45:11.602Z,13.48
2024-05-09T22:49:14.316Z,13.45
2024-05-09T22:53:16.882Z,13.36
2024-05-09T22:57:19.455Z,13.47
2024-05-09T23:01:23.603Z,13.46
2024-05-09T23:05:29.916Z,13.36
2024-05-09T23:09:37.162Z,13.18
2024-05-09T23:13:45.783Z,13.33
2024-05-09T23:17:50.465Z,13.18
2024-05-09T23:21:52.943Z,13.09
2024-05-09T23:25:55.427Z,13.01
2024-05-09T23:29:58.070Z,13.04
2024-05-09T23:34:00.848Z,13.01
2024-05-09T23:38:05.958Z,13.04
2024-05-09T23:42:08.671Z,12.99
2024-05-09T23:46:11.135Z,12.92
2024-05-09T23:50:20.323Z,12.95
2024-05-09T23:54:26.096Z,12.86
2024-05-09T23:58:29.300Z,12.88
